メインページ
METAR-TAF:

METAR-TAF

空港 :

福岡空港

福岡, 日本

緯度: 33-35N, 経度: 130-27E, 海抜: 9m

現時点の気象観測

当レポートは33分前の08:00(UTC)に作成
西/北西の風 7kt、西/南西から北/北西の間で変化する
気温 9°C
湿度 53%
気圧 1025 hPa
視程10km以上
高度3000ftの雲はほとんどない
高度5000ftの千切れ雲あり

METAR: RJFF 130800Z 29007KT 250V330 9999 FEW030 BKN050 09/M00 Q1025 NOSIG RMK 1CU030 6SC050 A3029

時間: 17:33 (08:33 UTC)

予報

当レポートは3時間24分前の05:09(UTC)に作成
予報は13日の 06時(UTC)から 14日の 12時(UTC)まで有効
西/北西の風 9kt
視程10km以上
高度2500ftの雲はほとんどない
高度3500ftの雲は散在している
高度4000ftの千切れ雲あり

TAF: RJFF 130509Z 1306/1412 30009KT 9999 FEW025 SCT035 BKN040

4,000以上の空港の気象観測と天気予報(METAR報とTAF報)

利用可能な観測所は地図上に黄色い丸と赤い丸で示す。

丸の上にカーソルを重ねると観測所名を参照できる。

次にクリックすると気象観測と天気予報を参照できる。

マップの切り替え:黒色「×」印の緑ボタンをクリックして拡大、「-」印の緑ボタンをクリックして縮小、緑色の三角印をクリックして隣りの地図に切り替え


METAR-TAF: